West Sunbury, Pennsylvania
Current Conditions -  °F | °C
As of 7:35 PM on Sunday 25 Jan 2015 (Local Time) from KBTP Reporting Station
Overcast Overcast  
Wind Chill: 19°   Ceiling: 2000
Heat Index: 28°   Visibility: 2.5mi
Dew Point: 27°   Wind: 10mph
Humidity: 93%   Direction: 50°NE
Pressure: 29.81"   Gusts: NA
Location:  41.01°N, 79.9°W
Report Text: KBTP 260035Z AUTO 05009KT 2 1/2SM SCT007 OVC020 M02/M03 A2981 RMK AO1
Loading
Personal Weather Stations






























Interactive Weather Map New forecast layout! Learn more

10-Day Weather Forecast

Advertisements
Track Severe Weather on mobile